Terminal Aerodrome Forecast
Issued by NWS

Home | Current Version | Previous Version | Text Only | Print | Product List | Glossary On
Versions: 1 2 3 4 5 6 7 8 9 10 11 12 13 14 15 16 17 18 19 20 21 22 23
000
FTUS43 KSGF 041726
TAFJLN
TAF
KJLN 041726Z 0418/0518 29007KT P6SM OVC015
     FM042000 30007KT P6SM SCT025
     FM042200 30006KT P6SM SKC
     FM050800 17004KT 4SM BR SKC
     FM050900 17004KT 1 1/2SM BR FEW035
     FM051500 15007KT P6SM SCT110=

USA.gov is the U.S. government's official web portal to all federal, state and local government web resources and services.